CYCY

Clyde River Airport

Clyde River, Canada
METAR CYCY 192000Z 13007KT 25SM FEW036 BKN055 03/02 A2955 RMK SC1SC7 SC TR SLP011
Observed Flight Rules
Jun-19 @ 20:00 UTC (15 minutes ago) Visual Flight Rules
Wind Visibility Clouds
130° at 7 knots 25 miles
  • Few at 3,600' AGL
  • Broken at 5,500' AGL
Temperatures Readings
Current 3°C / 37°F
Dewpoint 2°C / 36°F
Humidity 93%
Altimeter 29.55" Hg
Pressure 1001.1 hPa
Elevation 26
METAR CYCY 192000Z 13007KT 25SM FEW036 BKN055 03/02 A2955 RMK SC1SC7 SC TR SLP011
Observed Flight Rules
Jun-19 @ 20:00 UTC
(15 minutes ago)
VFR
Wind Visibility
130° at 7 knots 25 miles
Clouds
  • Few at 3,600' AGL
  • Broken at 5,500' AGL
Temperature Dewpoint
3°C / 37°F 2°C / 36°F
Humidity Altimeter Pressure
93% 29.55" Hg 1001.1 hPa